createdAt,value
2018-08-23T00:01:23.061Z,80.3
2018-08-23T00:02:30.305Z,87.9
2018-08-23T00:03:37.567Z,89.6
2018-08-23T00:04:45.136Z,89.1
2018-08-23T00:05:52.352Z,92.2
2018-08-23T00:06:59.597Z,92.7
2018-08-23T00:08:06.824Z,95
2018-08-23T00:09:14.287Z,96.2
2018-08-23T00:10:21.517Z,96.2
2018-08-23T00:11:28.949Z,94.6
2018-08-23T00:12:36.170Z,97
2018-08-23T00:13:43.427Z,99.2
2018-08-23T00:14:50.775Z,96.7
2018-08-23T00:15:58.015Z,94.6
2018-08-23T00:17:05.255Z,96.6
2018-08-23T00:18:12.505Z,97.8
2018-08-23T00:19:19.731Z,97.1
2018-08-23T00:20:26.964Z,99.2
2018-08-23T00:21:34.193Z,95.5
2018-08-23T00:22:41.152Z,91.7
2018-08-23T00:23:48.374Z,96.9
2018-08-23T00:24:55.832Z,98.2
2018-08-23T00:26:03.055Z,93.9
2018-08-23T00:27:10.649Z,95.5
2018-08-23T00:28:18.216Z,96.9
2018-08-23T00:29:25.446Z,99.4
2018-08-23T00:30:32.405Z,99.9
2018-08-23T00:31:39.647Z,94.9
2018-08-23T00:32:46.876Z,93.3
2018-08-23T00:33:54.124Z,94.2
2018-08-23T00:35:01.353Z,96.7
2018-08-23T00:36:08.798Z,95.5
2018-08-23T00:37:16.023Z,92.8
2018-08-23T00:38:23.473Z,93.9
2018-08-23T00:39:30.699Z,94
2018-08-23T00:40:37.912Z,92.4
2018-08-23T00:41:45.150Z,98.1
2018-08-23T00:42:52.388Z,97.4
2018-08-23T00:43:59.626Z,97.2
2018-08-23T00:45:06.870Z,98.5
2018-08-23T00:46:14.113Z,99.1
2018-08-23T00:47:21.552Z,99.9
2018-08-23T00:48:28.771Z,98.3
2018-08-23T00:49:35.991Z,99.9
2018-08-23T00:50:43.227Z,99.9
2018-08-23T00:51:50.457Z,99.9
2018-08-23T00:52:57.682Z,99.1
2018-08-23T00:54:04.958Z,99.9
2018-08-23T00:55:12.441Z,99.9
2018-08-23T00:56:19.681Z,99.9
2018-08-23T00:57:26.905Z,99.9
2018-08-23T00:58:34.145Z,99.9
2018-08-23T00:59:41.099Z,99.9
2018-08-23T01:00:48.036Z,99.9
2018-08-23T01:01:54.727Z,99.9
2018-08-23T01:03:02.168Z,99.4
2018-08-23T01:04:09.388Z,99.9
2018-08-23T01:05:16.850Z,99.9
2018-08-23T01:06:24.070Z,99.9
2018-08-23T01:07:31.323Z,99.9
2018-08-23T01:08:38.309Z,99.9
2018-08-23T01:09:45.251Z,99.9
2018-08-23T22:00:06.430Z,99.9
2018-08-23T22:02:26.656Z,99.9
2018-08-23T22:03:33.906Z,99.9
2018-08-23T22:04:41.150Z,99.9
2018-08-23T22:05:48.329Z,99.9
2018-08-23T22:06:55.552Z,99.9
2018-08-23T22:08:03.013Z,99.9
2018-08-23T22:09:10.233Z,99.9
2018-08-23T22:10:17.501Z,99.9
2018-08-23T22:11:24.722Z,99.9
2018-08-23T22:12:31.965Z,99.9
2018-08-23T22:13:39.208Z,99.9
2018-08-23T22:14:46.430Z,99.9
2018-08-23T22:15:53.649Z,99.9
2018-08-23T22:17:01.110Z,99.9
2018-08-23T22:18:08.330Z,99.9
2018-08-23T22:19:15.509Z,99.9
2018-08-23T22:20:22.730Z,99.9
2018-08-23T22:21:29.950Z,99.9
2018-08-23T22:22:37.190Z,99.9
2018-08-23T22:23:44.169Z,99.9
2018-08-23T22:24:51.414Z,99.9
2018-08-23T22:25:58.657Z,99.9
2018-08-23T22:27:05.977Z,99.9
2018-08-23T22:28:13.754Z,99.9
2018-08-23T22:29:20.974Z,99.9
2018-08-23T22:30:28.214Z,99.9
2018-08-23T22:31:35.435Z,99.9
2018-08-23T22:32:42.685Z,99.9
2018-08-23T22:33:49.908Z,99.9
2018-08-23T22:34:57.364Z,99.9
2018-08-23T22:36:04.304Z,99.9
2018-08-23T22:37:11.773Z,99.9
2018-08-23T22:38:18.462Z,99.9
2018-08-23T22:39:25.759Z,99.9
2018-08-23T22:40:33.103Z,99.9
2018-08-23T22:41:40.343Z,99.9
2018-08-23T22:42:47.582Z,99.9
2018-08-23T22:43:55.043Z,99.9
2018-08-23T22:45:02.272Z,99.9
2018-08-23T22:46:09.729Z,99.9
2018-08-23T22:47:16.947Z,99.9
2018-08-23T22:48:24.386Z,99.9
2018-08-23T22:49:31.633Z,99.9
2018-08-23T22:50:38.867Z,99.9
2018-08-23T22:51:45.833Z,99.9
2018-08-23T22:52:53.071Z,99.9
2018-08-23T22:54:00.315Z,99.9
2018-08-23T22:55:07.773Z,99.9
2018-08-23T22:56:15.016Z,99.9
2018-08-23T22:57:22.470Z,99.9
2018-08-23T22:58:29.689Z,99.9
2018-08-23T22:59:36.929Z,99.9
2018-08-23T23:00:44.152Z,99.9
2018-08-23T23:01:51.389Z,99.9
2018-08-23T23:02:58.631Z,99.9
2018-08-23T23:04:05.867Z,99.9
2018-08-23T23:05:13.163Z,99.9
2018-08-23T23:06:20.272Z,99.9
2018-08-23T23:07:27.494Z,99.9
2018-08-23T23:08:34.439Z,99.9
2018-08-23T23:09:41.679Z,99.9
2018-08-23T23:10:48.636Z,99.9
2018-08-23T23:11:55.862Z,99.9
2018-08-23T23:13:03.317Z,99.9
2018-08-23T23:14:10.537Z,99.9
2018-08-23T23:15:18.003Z,99.9
2018-08-23T23:16:25.308Z,99.9
2018-08-23T23:17:32.716Z,99.9
2018-08-23T23:18:39.999Z,99.9
2018-08-23T23:19:46.962Z,99.9
2018-08-23T23:20:54.206Z,99.9
2018-08-23T23:22:01.440Z,99.9
2018-08-23T23:24:15.790Z,99.9
2018-08-23T23:25:23.016Z,99.9
2018-08-23T23:26:30.267Z,99.9
2018-08-23T23:27:37.494Z,99.9
2018-08-23T23:28:44.734Z,99.9
2018-08-23T23:29:51.979Z,99.9
2018-08-23T23:30:59.233Z,99.9
2018-08-23T23:32:06.471Z,99.9
2018-08-23T23:33:13.688Z,99.9
2018-08-23T23:34:20.933Z,99.9
2018-08-23T23:35:28.176Z,99.9
2018-08-23T23:36:35.428Z,99.9
2018-08-23T23:37:42.650Z,99.9
2018-08-23T23:38:49.876Z,99.9
2018-08-23T23:39:57.329Z,99.9
2018-08-23T23:41:04.559Z,99.9
2018-08-23T23:42:11.819Z,99.9
2018-08-23T23:43:19.040Z,99.9
2018-08-23T23:44:26.261Z,99.9
2018-08-23T23:45:33.301Z,99.9
2018-08-23T23:46:40.538Z,99.9
2018-08-23T23:47:47.777Z,99.9
2018-08-23T23:48:55.023Z,99.9
2018-08-23T23:50:01.969Z,99.9
2018-08-23T23:51:09.156Z,99.9
2018-08-23T23:52:16.384Z,99.9
2018-08-23T23:53:23.334Z,99.9
2018-08-23T23:54:30.560Z,99.9
2018-08-23T23:55:37.783Z,99.9
2018-08-23T23:56:45.017Z,99.9
2018-08-23T23:57:52.238Z,99.9
2018-08-23T23:58:59.464Z,99.9
